Time;durP1;ratioP1;P1;durP2;ratioP2;P2;SDS_P1;SDS_P2;PMS_P1;PMS_P2;Temp;Humidity;BMP_temperature;BMP_pressure;BME280_temperature;BME280_humidity;BME280_pressure;Samples;Min_cycle;Max_cycle;Signal;HPM_P1;HPM_P2
2021/09/30 00:00:37;;;;;;;2.27;1.47;;;9.00;98.30;;;;;;4976276;28;20503;-89
2021/09/30 00:03:03;;;;;;;1.33;1.33;;;9.10;99.10;;;;;;4977250;28;20625;-89
2021/09/30 00:05:28;;;;;;;1.87;1.70;;;9.20;96.90;;;;;;4974615;28;20420;-90
2021/09/30 00:07:54;;;;;;;2.83;1.93;;;9.80;98.00;;;;;;4957649;28;20574;-89
2021/09/30 00:10:22;;;;;;;2.40;1.60;;;11.00;98.10;;;;;;4958018;28;20224;-90
2021/09/30 00:12:58;;;;;;;1.80;1.70;;;9.50;98.00;;;;;;4973651;28;20174;-89
2021/09/30 00:40:32;;;;;;;7.73;2.90;;;10.40;98.10;;;;;;4979398;28;20409;-89
2021/09/30 00:47:52;;;;;;;2.50;2.40;;;10.90;97.90;;;;;;4978674;28;20196;-89
2021/09/30 00:50:26;;;;;;;3.37;3.07;;;11.60;99.90;;;;;;4977772;28;20425;-90
2021/09/30 00:53:14;;;;;;;2.33;2.20;;;8.50;98.80;;;;;;4961273;28;20444;-90
2021/09/30 01:45:43;;;;;;;2.78;2.58;;;8.90;98.10;;;;;;4977768;28;20421;-89
2021/09/30 02:59:44;;;;;;;2.67;2.57;;;8.60;96.90;;;;;;4956696;29;20198;-90
2021/09/30 03:02:10;;;;;;;2.90;2.77;;;10.00;96.50;;;;;;4939638;29;20517;-91
2021/09/30 03:04:38;;;;;;;2.97;2.77;;;9.70;96.30;;;;;;4940639;28;20449;-90
2021/09/30 03:07:07;;;;;;;3.00;2.80;;;11.40;98.20;;;;;;4939154;29;20429;-90
2021/09/30 03:09:40;;;;;;;3.63;3.22;;;10.60;95.50;;;;;;4958881;28;20425;-90
2021/09/30 03:12:31;;;;;;;3.47;3.23;;;10.60;95.60;;;;;;4955911;28;20226;-90
2021/09/30 03:17:54;;;;;;;5.00;3.50;;;8.70;95.50;;;;;;4958417;29;20433;-90
2021/09/30 03:23:20;;;;;;;6.35;3.58;;;9.20;96.00;;;;;;4959904;28;20438;-91
2021/09/30 03:25:49;;;;;;;3.30;3.20;;;10.10;96.90;;;;;;4940235;28;20228;-90
2021/09/30 03:28:17;;;;;;;5.93;3.53;;;10.70;96.70;;;;;;4939813;29;20422;-89
2021/09/30 03:30:44;;;;;;;6.03;3.07;;;13.40;99.40;;;;;;4938848;29;20517;-89
2021/09/30 03:33:11;;;;;;;3.53;3.23;;;8.60;96.00;;;;;;4956968;28;20426;-91
2021/09/30 03:35:39;;;;;;;4.57;4.17;;;10.90;97.30;;;;;;4958754;28;20458;-90
2021/09/30 03:38:06;;;;;;;3.30;3.10;;;9.60;97.20;;;;;;4958120;28;20413;-89
2021/09/30 03:40:32;;;;;;;3.57;3.43;;;8.70;97.10;;;;;;4925418;29;20514;-90
2021/09/30 03:43:00;;;;;;;4.10;3.73;;;6.40;94.60;;;;;;4941524;29;20430;-90
2021/09/30 03:45:26;;;;;;;5.10;3.80;;;9.80;98.40;;;;;;4941021;29;20438;-91
2021/09/30 03:47:51;;;;;;;4.43;4.10;;;6.80;96.30;;;;;;4939612;28;20928;-91
2021/09/30 03:50:23;;;;;;;8.33;3.90;;;9.90;98.80;;;;;;4945057;29;20174;-90
2021/09/30 04:00:47;;;;;;;9.25;4.05;;;6.70;95.80;;;;;;4963536;28;20596;-89
2021/09/30 04:03:12;;;;;;;4.15;3.85;;;7.90;99.10;;;;;;4943272;28;20656;-90
2021/09/30 04:05:38;;;;;;;3.57;3.30;;;7.20;96.90;;;;;;4963402;28;20178;-89
2021/09/30 04:08:06;;;;;;;3.70;3.40;;;8.10;98.00;;;;;;4945457;29;20198;-91
2021/09/30 04:10:32;;;;;;;4.97;4.33;;;9.50;98.20;;;;;;4961210;28;20198;-89
2021/09/30 04:12:58;;;;;;;4.73;4.30;;;;;;;;;;4947991;29;20422;-88
2021/09/30 04:15:24;;;;;;;4.33;4.10;;;9.00;95.70;;;;;;4951572;29;20170;-88
2021/09/30 04:17:50;;;;;;;6.33;4.80;;;;;;;;;;4949058;28;20415;-90
2021/09/30 04:20:17;;;;;;;4.03;3.63;;;8.90;96.20;;;;;;4946303;29;20402;-90
2021/09/30 04:22:44;;;;;;;4.25;3.95;;;10.20;99.90;;;;;;4945607;29;20477;-90
2021/09/30 04:25:10;;;;;;;3.45;3.15;;;11.10;97.60;;;;;;4960857;28;20273;-91
2021/09/30 04:27:36;;;;;;;8.00;3.60;;;9.10;97.30;;;;;;4948901;29;20183;-87
2021/09/30 04:30:03;;;;;;;5.53;4.10;;;7.70;97.90;;;;;;4961549;28;20406;-90
2021/09/30 04:32:29;;;;;;;6.20;3.80;;;9.20;96.60;;;;;;4959956;28;20170;-90
2021/09/30 04:34:54;;;;;;;6.17;4.40;;;7.00;96.20;;;;;;4962064;28;20190;-89
2021/09/30 04:37:22;;;;;;;6.33;4.17;;;;;;;;;;4963331;28;20249;-88
2021/09/30 04:39:47;;;;;;;4.90;4.50;;;8.80;95.80;;;;;;4959571;28;20254;-88
2021/09/30 04:42:13;;;;;;;11.17;4.00;;;10.90;99.60;;;;;;4944025;29;20219;-90
2021/09/30 04:44:39;;;;;;;3.60;3.43;;;9.00;97.50;;;;;;4944171;29;20229;-90
2021/09/30 04:47:04;;;;;;;6.37;4.83;;;8.20;96.60;;;;;;4945869;29;20178;-90
2021/09/30 04:49:31;;;;;;;3.97;3.30;;;8.60;96.20;;;;;;4945127;29;20246;-90
2021/09/30 04:51:56;;;;;;;4.07;3.92;;;8.50;95.90;;;;;;4961975;28;20175;-89
2021/09/30 04:54:22;;;;;;;4.47;4.03;;;8.50;95.90;;;;;;4959635;28;20171;-91
2021/09/30 04:56:48;;;;;;;4.87;4.07;;;;;;;;;;4961105;28;20263;-90
2021/09/30 04:59:13;;;;;;;4.10;3.80;;;8.80;95.50;;;;;;4943847;28;20179;-88
2021/09/30 05:01:39;;;;;;;3.50;2.93;;;9.00;97.80;;;;;;4959673;28;20466;-90
2021/09/30 05:04:05;;;;;;;4.80;3.73;;;;;;;;;;4946120;29;20318;-91
2021/09/30 05:06:31;;;;;;;5.37;4.73;;;8.70;95.70;;;;;;4944069;29;20804;-90
2021/09/30 05:08:59;;;;;;;16.93;4.40;;;;;;;;;;4960719;28;20406;-90
2021/09/30 05:11:31;;;;;;;8.40;4.57;;;8.70;96.30;;;;;;4948244;29;20178;-89
2021/09/30 05:14:00;;;;;;;5.60;3.75;;;5.90;95.70;;;;;;4944228;29;20406;-89
2021/09/30 05:16:26;;;;;;;7.75;4.00;;;8.90;98.70;;;;;;4947101;29;20182;-90
2021/09/30 05:18:55;;;;;;;4.40;3.97;;;7.50;96.50;;;;;;4960934;28;20251;-90
2021/09/30 05:21:45;;;;;;;7.00;4.63;;;10.00;99.70;;;;;;4945482;29;20965;-90
2021/09/30 05:24:09;;;;;;;5.70;4.40;;;8.70;96.90;;;;;;4961833;28;20478;-90
2021/09/30 05:26:35;;;;;;;3.80;3.23;;;7.80;96.70;;;;;;4945461;28;21028;-89
2021/09/30 05:29:01;;;;;;;6.33;3.07;;;;;;;;;;4961652;28;20234;-89
2021/09/30 05:31:29;;;;;;;6.97;4.07;;;8.80;95.40;;;;;;4961608;28;20414;-89
2021/09/30 05:33:55;;;;;;;8.63;3.97;;;9.90;96.90;;;;;;4961282;28;20418;-90
2021/09/30 05:36:21;;;;;;;4.40;4.00;;;7.40;94.90;;;;;;4961472;28;20535;-89
2021/09/30 05:38:47;;;;;;;5.03;3.60;;;10.80;97.50;;;;;;4966094;28;20198;-87
2021/09/30 05:41:13;;;;;;;8.43;4.07;;;7.60;97.00;;;;;;4945588;29;20498;-86
2021/09/30 05:43:41;;;;;;;4.80;3.40;;;12.20;99.90;;;;;;4946877;29;20175;-87
2021/09/30 05:46:09;;;;;;;4.20;3.95;;;7.90;98.40;;;;;;4964225;28;20233;-88
2021/09/30 05:48:36;;;;;;;6.68;3.80;;;10.40;98.40;;;;;;4945126;29;20190;-87
2021/09/30 05:51:02;;;;;;;3.85;3.05;;;9.60;98.80;;;;;;4965024;28;20171;-87
2021/09/30 05:53:28;;;;;;;10.20;3.93;;;;;;;;;;4945886;28;20186;-88
2021/09/30 05:55:54;;;;;;;4.10;3.80;;;8.80;95.10;;;;;;4963503;28;20179;-86
2021/09/30 05:58:20;;;;;;;10.13;3.83;;;;;;;;;;4964539;28;20425;-87
2021/09/30 06:01:36;;;;;;;4.70;4.30;;;8.90;95.00;;;;;;4948298;29;20179;-87
2021/09/30 06:10:33;;;;;;;3.77;2.83;;;8.20;94.00;;;;;;4939306;29;20200;-90
2021/09/30 06:13:05;;;;;;;5.03;4.27;;;10.10;94.10;;;;;;4899333;29;20444;-88
2021/09/30 06:15:33;;;;;;;7.13;4.80;;;10.60;95.70;;;;;;4941809;29;20419;-90
2021/09/30 06:18:01;;;;;;;5.45;3.67;;;10.50;97.30;;;;;;4939324;29;20426;-90
2021/09/30 06:20:27;;;;;;;5.73;3.60;;;8.90;95.50;;;;;;4940787;29;20171;-90
2021/09/30 06:22:53;;;;;;;4.43;3.50;;;6.90;93.00;;;;;;4940394;29;20474;-90
2021/09/30 06:25:19;;;;;;;5.50;3.87;;;7.20;94.80;;;;;;4939936;29;20474;-88
2021/09/30 06:27:46;;;;;;;6.57;4.00;;;7.90;94.00;;;;;;4941135;29;20467;-88
2021/09/30 06:30:12;;;;;;;8.00;2.83;;;11.90;94.30;;;;;;4940876;29;20179;-90
2021/09/30 06:32:38;;;;;;;4.13;3.73;;;10.60;93.50;;;;;;4938659;29;20447;-89
2021/09/30 06:35:05;;;;;;;4.13;3.80;;;13.00;92.80;;;;;;4253517;29;10000679;-88
2021/09/30 06:37:32;;;;;;;3.63;2.80;;;11.40;86.00;;;;;;4925365;29;20424;-91
2021/09/30 06:40:05;;;;;;;7.93;2.60;;;14.50;92.30;;;;;;4923810;29;20428;-89
2021/09/30 06:42:32;;;;;;;3.30;3.03;;;12.00;83.80;;;;;;4927883;29;20535;-91
2021/09/30 06:45:03;;;;;;;2.90;2.70;;;15.80;89.60;;;;;;4965655;28;20419;-92
2021/09/30 06:47:30;;;;;;;60.77;9.67;;;14.00;78.20;;;;;;4949496;29;20441;-88
2021/09/30 06:50:00;;;;;;;2.63;2.50;;;14.30;81.20;;;;;;4963834;28;20493;-91
2021/09/30 06:52:29;;;;;;;4.30;2.20;;;13.50;72.30;;;;;;4946209;29;20418;-90
2021/09/30 06:54:55;;;;;;;7.67;2.90;;;18.70;83.90;;;;;;4931799;29;20480;-88
2021/09/30 06:57:21;;;;;;;4.87;2.70;;;16.30;78.30;;;;;;4963332;28;20478;-88
2021/09/30 06:59:47;;;;;;;4.80;3.00;;;14.50;80.20;;;;;;4943505;29;20345;-91
2021/09/30 07:02:15;;;;;;;73.87;12.17;;;14.80;86.70;;;;;;4966180;28;20501;-88
2021/09/30 07:04:43;;;;;;;3.10;2.70;;;14.90;86.40;;;;;;4967477;28;20178;-90
2021/09/30 07:07:09;;;;;;;4.17;2.30;;;;;;;;;;4947412;29;20728;-89
2021/09/30 07:09:38;;;;;;;2.37;2.10;;;15.60;59.80;;;;;;4967267;28;20417;-90
2021/09/30 07:12:10;;;;;;;6.10;3.33;;;16.20;60.10;;;;;;4965123;28;20426;-92
2021/09/30 07:14:47;;;;;;;4.80;2.60;;;16.30;59.80;;;;;;4952653;28;20438;-90
2021/09/30 07:17:13;;;;;;;3.30;3.10;;;18.20;61.70;;;;;;5116395;23;20478;-89
2021/09/30 07:22:14;;;;;;;2.97;2.87;;;17.20;56.80;;;;;;5144614;23;20251;-90
2021/09/30 07:24:40;;;;;;;2.20;2.10;;;20.10;65.30;;;;;;4968098;28;20489;-90
2021/09/30 07:27:09;;;;;;;2.70;2.47;;;17.90;58.30;;;;;;4986318;28;20605;-91
2021/09/30 07:29:39;;;;;;;2.70;2.47;;;18.00;56.40;;;;;;4990630;28;20186;-92
2021/09/30 07:32:06;;;;;;;3.27;2.80;;;20.70;59.00;;;;;;4984190;28;20436;-90
2021/09/30 07:34:33;;;;;;;6.33;2.70;;;18.10;55.80;;;;;;4965527;28;20806;-89
2021/09/30 07:36:59;;;;;;;6.40;3.10;;;18.20;55.60;;;;;;4963055;28;20461;-92
2021/09/30 07:39:33;;;;;;;5.50;2.80;;;20.50;55.80;;;;;;4980329;28;20492;-89
2021/09/30 07:41:59;;;;;;;5.23;3.20;;;19.60;55.70;;;;;;4979957;28;20493;-88
2021/09/30 07:44:25;;;;;;;3.07;2.90;;;19.50;54.80;;;;;;4949060;28;20553;-88
2021/09/30 07:46:54;;;;;;;2.70;2.60;;;19.90;52.70;;;;;;4960585;28;20182;-89
2021/09/30 07:49:20;;;;;;;4.57;3.60;;;21.30;51.70;;;;;;4959743;28;20427;-86
2021/09/30 07:51:46;;;;;;;3.13;2.90;;;20.80;50.70;;;;;;4961050;28;20445;-90
2021/09/30 07:54:13;;;;;;;5.70;3.20;;;22.50;51.30;;;;;;4964364;28;20496;-90
2021/09/30 07:56:40;;;;;;;3.50;3.20;;;20.90;50.30;;;;;;4979665;28;20440;-89
2021/09/30 07:59:08;;;;;;;4.90;2.83;;;19.40;50.30;;;;;;4981041;28;20437;-91
2021/09/30 08:01:37;;;;;;;5.23;2.70;;;20.80;50.50;;;;;;4963746;28;20469;-88
2021/09/30 08:04:03;;;;;;;3.90;3.27;;;22.60;51.30;;;;;;4947737;28;20436;-90
2021/09/30 08:06:29;;;;;;;4.00;2.70;;;21.30;50.90;;;;;;4960009;28;20436;-86
2021/09/30 08:08:56;;;;;;;3.40;3.10;;;22.10;50.40;;;;;;4976462;28;20414;-90
2021/09/30 08:11:23;;;;;;;3.83;3.63;;;20.80;49.40;;;;;;4978692;28;20178;-87
2021/09/30 08:13:49;;;;;;;10.97;3.07;;;21.20;49.10;;;;;;4978179;28;20414;-89
2021/09/30 08:16:19;;;;;;;3.33;3.03;;;23.30;49.70;;;;;;4962064;28;20962;-89
2021/09/30 08:18:47;;;;;;;4.13;2.10;;;21.40;65.50;;;;;;4982096;28;20416;-92
2021/09/30 08:21:14;;;;;;;3.03;2.93;;;21.60;62.40;;;;;;4965351;28;20473;-90
2021/09/30 08:23:42;;;;;;;3.30;2.70;;;22.10;49.30;;;;;;4981640;28;20444;-88
2021/09/30 08:26:11;;;;;;;3.97;2.90;;;20.60;47.70;;;;;;4967091;28;20405;-91
2021/09/30 08:28:39;;;;;;;5.50;2.73;;;22.30;49.60;;;;;;4986574;28;20909;-92
2021/09/30 08:31:10;;;;;;;2.37;2.17;;;22.40;51.80;;;;;;4966709;28;20899;-91
2021/09/30 08:33:40;;;;;;;2.70;2.57;;;23.70;48.60;;;;;;4969241;28;20421;-89
2021/09/30 08:36:30;;;;;;;6.33;3.30;;;23.20;47.80;;;;;;4987162;28;20428;-92
2021/09/30 08:39:00;;;;;;;4.93;2.33;;;23.70;49.20;;;;;;4990276;28;20424;-91
2021/09/30 08:41:30;;;;;;;2.20;2.07;;;21.10;49.00;;;;;;4954865;28;20818;-86
2021/09/30 08:43:57;;;;;;;2.70;2.03;;;20.70;48.80;;;;;;4988327;28;20497;-89
2021/09/30 08:46:25;;;;;;;12.03;3.10;;;21.30;48.40;;;;;;4990190;28;20428;-91
2021/09/30 08:48:51;;;;;;;2.57;1.90;;;20.50;48.70;;;;;;4971274;28;20422;-92
2021/09/30 08:51:19;;;;;;;2.13;1.80;;;19.60;49.70;;;;;;4988445;28;20523;-90
2021/09/30 08:53:45;;;;;;;1.77;1.77;;;20.90;47.30;;;;;;4967039;28;20751;-88
2021/09/30 08:56:11;;;;;;;3.33;2.10;;;21.10;47.70;;;;;;4967244;28;20449;-90
2021/09/30 08:58:38;;;;;;;2.37;2.20;;;21.30;49.30;;;;;;4965457;28;20421;-91
2021/09/30 09:01:07;;;;;;;2.33;2.13;;;22.60;49.20;;;;;;4981947;28;20461;-88
2021/09/30 09:03:39;;;;;;;3.07;1.90;;;22.90;48.80;;;;;;4981991;28;20608;-85
2021/09/30 09:06:06;;;;;;;2.03;2.03;;;20.90;47.60;;;;;;4982599;28;20472;-92
2021/09/30 09:08:34;;;;;;;3.23;2.50;;;21.20;47.50;;;;;;4967121;28;20457;-87
2021/09/30 09:11:02;;;;;;;3.00;2.50;;;22.90;49.00;;;;;;4981331;28;20426;-88
2021/09/30 09:13:28;;;;;;;2.90;1.67;;;21.50;46.90;;;;;;4968686;28;20881;-88
2021/09/30 09:16:02;;;;;;;1.97;1.87;;;20.80;47.20;;;;;;4981065;28;20413;-87
2021/09/30 09:18:34;;;;;;;4.03;2.03;;;20.80;47.40;;;;;;4964932;28;20173;-88
2021/09/30 09:21:15;;;;;;;2.13;2.03;;;20.90;47.40;;;;;;4966336;28;20469;-88
2021/09/30 09:24:01;;;;;;;4.00;2.50;;;20.90;47.20;;;;;;4965190;28;20963;-89
2021/09/30 09:26:37;;;;;;;4.87;1.93;;;22.10;46.60;;;;;;4980962;28;20402;-90
2021/09/30 09:29:09;;;;;;;2.57;2.33;;;24.20;47.40;;;;;;4984031;28;20505;-89
2021/09/30 09:31:47;;;;;;;3.00;2.13;;;25.20;49.30;;;;;;4983462;28;20402;-87
2021/09/30 09:34:39;;;;;;;2.43;1.90;;;19.50;45.50;;;;;;4964278;28;20754;-85
2021/09/30 09:37:30;;;;;;;5.27;2.20;;;22.30;47.40;;;;;;4965426;28;20884;-90
2021/09/30 09:39:57;;;;;;;2.77;2.10;;;21.80;46.70;;;;;;4983319;28;20397;-91
2021/09/30 09:42:31;;;;;;;6.93;2.10;;;21.00;45.40;;;;;;4964903;28;20514;-88
2021/09/30 09:45:11;;;;;;;1.70;1.60;;;21.10;45.60;;;;;;4985284;28;20408;-86
2021/09/30 09:47:51;;;;;;;1.83;1.70;;;21.00;45.90;;;;;;4981826;28;20429;-89
2021/09/30 09:50:21;;;;;;;4.80;1.93;;;22.70;47.80;;;;;;4962810;28;20421;-87
2021/09/30 09:52:55;;;;;;;2.97;2.03;;;24.10;46.60;;;;;;4963390;28;20659;-89
2021/09/30 09:55:32;;;;;;;1.50;1.40;;;22.80;44.60;;;;;;4635843;28;9999766;-88
2021/09/30 09:58:02;;;;;;;7.60;2.33;;;24.50;46.00;;;;;;4964364;28;20425;-89
2021/09/30 10:00:29;;;;;;;6.80;1.90;;;23.60;44.20;;;;;;4963162;28;20929;-90
2021/09/30 10:02:56;;;;;;;2.00;1.90;;;23.00;43.40;;;;;;4962981;28;20481;-88
2021/09/30 10:05:30;;;;;;;4.10;2.03;;;22.50;45.20;;;;;;4966115;28;20421;-90
2021/09/30 10:07:56;;;;;;;1.87;1.67;;;23.10;45.20;;;;;;4979980;28;20436;-88
2021/09/30 10:10:22;;;;;;;2.43;1.90;;;23.90;44.80;;;;;;4949619;29;20502;-89
2021/09/30 10:12:48;;;;;;;2.60;1.90;;;23.20;45.40;;;;;;4958603;28;20186;-87
2021/09/30 10:15:14;;;;;;;4.67;1.60;;;23.20;42.20;;;;;;4961688;29;20410;-90
2021/09/30 10:17:52;;;;;;;5.63;1.47;;;23.60;43.80;;;;;;4965312;28;20170;-89
2021/09/30 10:20:17;;;;;;;1.70;1.60;;;22.20;41.60;;;;;;4976590;28;20406;-87
2021/09/30 10:22:50;;;;;;;1.47;1.37;;;20.60;40.30;;;;;;4959729;28;20488;-88
2021/09/30 10:25:16;;;;;;;3.50;1.30;;;21.60;41.60;;;;;;4980419;28;20733;-89
2021/09/30 10:27:43;;;;;;;2.13;1.70;;;23.90;42.90;;;;;;4959510;28;20426;-85
2021/09/30 10:30:31;;;;;;;4.33;1.70;;;19.70;41.30;;;;;;4956214;28;20433;-86
2021/09/30 10:32:57;;;;;;;3.30;1.70;;;21.20;41.70;;;;;;4978290;28;20473;-85
2021/09/30 10:35:42;;;;;;;1.60;1.30;;;23.10;43.60;;;;;;4975304;28;20434;-88
2021/09/30 10:38:23;;;;;;;3.17;1.40;;;19.10;44.30;;;;;;4960565;28;20437;-83
2021/09/30 10:41:03;;;;;;;2.23;1.43;;;20.60;41.50;;;;;;4976951;28;20425;-88
2021/09/30 10:43:31;;;;;;;7.73;1.70;;;21.90;44.60;;;;;;4974509;28;20437;-84
2021/09/30 10:45:58;;;;;;;4.73;1.80;;;20.60;42.30;;;;;;4983629;28;20484;-88
2021/09/30 10:51:14;;;;;;;2.87;1.40;;;22.30;40.80;;;;;;5061127;23;20485;-90
2021/09/30 10:53:46;;;;;;;23.70;2.60;;;23.90;42.20;;;;;;4960219;28;20802;-87
2021/09/30 10:56:37;;;;;;;1.63;1.20;;;23.80;42.70;;;;;;4943990;29;20182;-88
2021/09/30 10:59:09;;;;;;;3.63;2.73;;;22.60;42.40;;;;;;4945284;29;20442;-88
2021/09/30 11:01:54;;;;;;;2.63;1.33;;;22.80;42.10;;;;;;4960353;28;20465;-85
2021/09/30 11:04:20;;;;;;;3.00;1.43;;;22.40;38.80;;;;;;4942427;29;20485;-87
2021/09/30 11:07:07;;;;;;;2.00;1.53;;;21.90;42.20;;;;;;4945350;29;20481;-85
2021/09/30 11:09:35;;;;;;;2.60;1.10;;;21.90;39.40;;;;;;4945831;29;20422;-85
2021/09/30 11:12:12;;;;;;;1.30;1.20;;;22.60;39.20;;;;;;4962221;28;20455;-89
2021/09/30 11:14:56;;;;;;;1.60;1.40;;;21.80;39.00;;;;;;4947566;29;20418;-86
2021/09/30 11:17:59;;;;;;;4.33;2.07;;;20.90;39.40;;;;;;4945453;29;20510;-87
2021/09/30 11:20:44;;;;;;;2.10;1.13;;;22.00;42.70;;;;;;4945744;29;20426;-82
2021/09/30 11:23:48;;;;;;;1.90;1.30;;;21.40;40.80;;;;;;4966297;28;20457;-87
2021/09/30 11:26:51;;;;;;;1.87;1.77;;;21.30;40.10;;;;;;4961808;28;20565;-88
2021/09/30 11:29:30;;;;;;;2.30;1.30;;;21.50;41.20;;;;;;4613949;28;10000057;-89
2021/09/30 11:32:07;;;;;;;0.87;0.87;;;20.80;42.90;;;;;;4967420;28;20177;-90
2021/09/30 11:34:50;;;;;;;2.43;1.20;;;21.60;43.90;;;;;;4981298;28;20520;-88
2021/09/30 11:37:35;;;;;;;;;;;;;;;;;;;;;
2021/09/30 11:40:17;;;;;;;1.70;1.53;;;22.80;41.30;;;;;;4973057;28;20505;-89
2021/09/30 11:42:49;;;;;;;1.23;1.17;;;21.80;39.80;;;;;;4944220;29;20509;-88
2021/09/30 11:45:45;;;;;;;3.97;1.60;;;21.60;40.00;;;;;;4941253;29;20418;-87
2021/09/30 11:48:15;;;;;;;2.30;2.20;;;22.00;40.00;;;;;;4944144;29;20449;-90
2021/09/30 11:50:40;;;;;;;3.90;3.60;;;26.30;40.80;;;;;;4941307;29;20462;-82
2021/09/30 11:53:09;;;;;;;6.60;4.53;;;24.90;43.00;;;;;;4967551;28;20456;-87
2021/09/30 11:55:40;;;;;;;5.17;1.83;;;25.80;41.00;;;;;;4961588;28;20268;-88
2021/09/30 11:58:07;;;;;;;2.40;1.40;;;21.90;37.80;;;;;;4978723;28;20552;-91
2021/09/30 12:00:33;;;;;;;1.10;1.00;;;24.70;37.70;;;;;;4978666;28;20417;-89
2021/09/30 12:03:06;;;;;;;3.80;1.00;;;23.00;36.40;;;;;;4977803;28;20472;-90
2021/09/30 12:05:37;;;;;;;2.20;1.13;;;23.90;36.80;;;;;;4977113;28;20414;-85
2021/09/30 12:08:24;;;;;;;1.63;1.50;;;24.20;36.40;;;;;;4978725;28;20469;-87
2021/09/30 12:10:57;;;;;;;1.33;0.87;;;;;;;;;;4978040;28;20790;-89
2021/09/30 12:13:23;;;;;;;1.90;1.00;;;;;;;;;;4963845;28;20532;-91
2021/09/30 12:15:50;;;;;;;2.40;1.40;;;;;;;;;;4986668;28;20812;-91
2021/09/30 12:18:20;;;;;;;1.10;1.10;;;25.80;35.40;;;;;;4965475;28;20425;-88
2021/09/30 12:20:50;;;;;;;1.20;1.10;;;26.20;36.10;;;;;;4966116;28;20421;-88
2021/09/30 12:23:17;;;;;;;2.53;1.30;;;25.70;36.70;;;;;;4984029;28;20422;-83
2021/09/30 12:25:45;;;;;;;1.27;1.17;;;24.20;36.60;;;;;;4981752;28;20472;-87
2021/09/30 12:28:12;;;;;;;1.00;1.00;;;23.70;36.00;;;;;;4963625;28;20429;-88
2021/09/30 12:30:39;;;;;;;2.23;1.37;;;22.80;36.00;;;;;;4979359;28;20500;-88
2021/09/30 12:33:07;;;;;;;2.63;1.47;;;23.70;37.70;;;;;;4640620;28;9999850;-89
2021/09/30 12:35:34;;;;;;;1.37;1.10;;;20.30;36.20;;;;;;4984487;28;20485;-92
2021/09/30 12:38:09;;;;;;;2.00;1.27;;;24.90;38.60;;;;;;4963693;28;20519;-88
2021/09/30 12:40:54;;;;;;;3.13;1.00;;;24.30;38.50;;;;;;4983196;28;20488;-88
2021/09/30 12:43:31;;;;;;;1.30;1.13;;;20.90;37.10;;;;;;4965506;28;20444;-90
2021/09/30 12:46:01;;;;;;;1.37;1.30;;;21.10;40.10;;;;;;4966162;28;20443;-90
2021/09/30 12:48:32;;;;;;;1.10;1.10;;;20.80;42.60;;;;;;4619786;28;10000308;-90
2021/09/30 12:51:10;;;;;;;1.10;1.10;;;21.80;41.90;;;;;;4981358;28;20478;-89
2021/09/30 12:53:50;;;;;;;1.50;1.50;;;22.10;42.50;;;;;;4967029;28;20429;-89
2021/09/30 12:56:18;;;;;;;2.00;1.57;;;19.40;40.50;;;;;;4981392;28;20408;-89
2021/09/30 12:58:47;;;;;;;4.03;2.10;;;20.80;42.70;;;;;;4981369;28;20433;-91
2021/09/30 13:01:35;;;;;;;2.10;1.20;;;19.40;42.00;;;;;;4962264;28;20859;-90
2021/09/30 13:04:26;;;;;;;1.47;1.10;;;18.80;42.50;;;;;;4961729;28;20520;-90
2021/09/30 13:06:56;;;;;;;2.20;1.27;;;18.60;42.30;;;;;;4961540;28;20495;-89
2021/09/30 13:09:43;;;;;;;1.53;1.40;;;20.60;46.40;;;;;;4961203;28;20441;-90
2021/09/30 13:12:14;;;;;;;1.07;1.07;;;19.40;44.10;;;;;;4977606;28;20437;-88
2021/09/30 13:14:52;;;;;;;1.30;1.30;;;19.20;44.10;;;;;;4975081;28;20434;-89
2021/09/30 13:17:22;;;;;;;1.43;1.40;;;20.00;45.60;;;;;;4965870;28;20442;-89
2021/09/30 13:19:55;;;;;;;1.80;1.77;;;18.10;44.20;;;;;;4975357;28;20435;-90
2021/09/30 13:22:28;;;;;;;6.20;1.33;;;18.00;44.80;;;;;;4977233;28;20465;-91
2021/09/30 13:24:58;;;;;;;2.20;1.07;;;18.00;43.80;;;;;;4981878;28;20405;-90
2021/09/30 13:27:29;;;;;;;7.80;1.67;;;17.30;43.30;;;;;;4983214;28;20417;-90
2021/09/30 13:29:56;;;;;;;3.27;1.80;;;18.60;44.80;;;;;;4980977;28;20804;-90
2021/09/30 13:32:24;;;;;;;1.90;1.10;;;18.40;45.40;;;;;;4980131;28;20516;-91
2021/09/30 13:34:51;;;;;;;2.87;1.77;;;18.90;46.70;;;;;;4984192;28;20425;-92
2021/09/30 13:37:26;;;;;;;2.90;1.30;;;19.60;46.60;;;;;;4986361;28;20441;-90
2021/09/30 13:39:57;;;;;;;5.10;4.57;;;17.60;47.20;;;;;;4952780;29;20441;-89
2021/09/30 13:42:33;;;;;;;1.57;1.30;;;17.80;45.80;;;;;;4952705;28;20481;-93
2021/09/30 13:45:24;;;;;;;3.07;1.20;;;16.40;46.00;;;;;;4938556;29;20489;-92
2021/09/30 13:47:52;;;;;;;3.03;1.50;;;17.90;46.20;;;;;;4949526;29;20434;-88
2021/09/30 13:50:23;;;;;;;3.60;1.80;;;17.60;46.80;;;;;;4948043;28;20505;-85
2021/09/30 13:52:53;;;;;;;4.43;1.47;;;17.70;48.20;;;;;;4945846;29;20475;-91
2021/09/30 13:55:22;;;;;;;3.27;1.60;;;17.50;47.30;;;;;;4943883;29;20423;-89
2021/09/30 13:57:53;;;;;;;1.73;1.63;;;17.40;47.40;;;;;;4945608;29;20511;-92
2021/09/30 14:00:19;;;;;;;2.93;1.20;;;19.70;49.20;;;;;;4944182;29;20451;-93
2021/09/30 14:02:47;;;;;;;1.93;1.50;;;17.90;47.90;;;;;;4944691;29;20482;-90
2021/09/30 14:05:15;;;;;;;2.20;1.47;;;18.30;47.90;;;;;;4943568;29;20430;-89
2021/09/30 14:08:00;;;;;;;5.20;1.50;;;18.90;48.10;;;;;;4950272;29;20407;-94
2021/09/30 14:10:27;;;;;;;2.67;1.20;;;18.20;47.10;;;;;;4951457;29;20446;-94
2021/09/30 14:12:52;;;;;;;1.23;1.13;;;20.50;50.00;;;;;;4954066;28;20428;-91
2021/09/30 14:15:21;;;;;;;1.90;1.73;;;18.90;48.60;;;;;;4947326;29;20423;-89
2021/09/30 14:17:47;;;;;;;2.80;2.70;;;19.90;49.70;;;;;;4942805;29;20319;-90
2021/09/30 14:20:13;;;;;;;1.30;1.20;;;15.80;48.10;;;;;;4945005;29;20487;-90
2021/09/30 14:22:42;;;;;;;1.70;1.60;;;17.40;49.00;;;;;;4946970;29;20207;-92
2021/09/30 14:25:14;;;;;;;6.87;1.70;;;17.20;48.60;;;;;;4945065;29;20427;-92
2021/09/30 14:27:42;;;;;;;5.00;1.83;;;18.70;49.80;;;;;;4949536;29;20490;-90
2021/09/30 14:30:11;;;;;;;3.43;1.97;;;19.40;49.20;;;;;;4946098;29;20459;-89
2021/09/30 14:32:37;;;;;;;5.87;1.60;;;17.70;48.60;;;;;;4945677;29;20551;-89
2021/09/30 14:35:13;;;;;;;1.53;1.00;;;16.90;48.30;;;;;;4949489;29;20411;-92
2021/09/30 14:37:39;;;;;;;3.33;1.00;;;17.80;49.20;;;;;;4930021;29;20194;-90
2021/09/30 14:40:08;;;;;;;1.33;1.13;;;18.60;50.40;;;;;;4948136;29;20408;-91
2021/09/30 14:42:37;;;;;;;3.80;1.27;;;17.00;48.50;;;;;;4950115;29;20235;-90
2021/09/30 14:45:22;;;;;;;2.33;1.67;;;18.60;48.90;;;;;;4946564;29;20419;-92
2021/09/30 14:47:50;;;;;;;1.50;1.17;;;17.20;48.10;;;;;;4963996;28;20431;-90
2021/09/30 14:50:23;;;;;;;2.43;1.13;;;16.70;48.70;;;;;;4977397;28;20464;-90
2021/09/30 14:52:54;;;;;;;1.00;1.00;;;15.90;47.80;;;;;;4986538;28;20425;-92
2021/09/30 14:55:20;;;;;;;1.70;1.60;;;16.70;49.30;;;;;;4982355;28;20417;-90
2021/09/30 14:57:48;;;;;;;0.90;0.90;;;17.00;49.30;;;;;;4987248;28;20444;-90
2021/09/30 15:00:23;;;;;;;1.37;1.07;;;16.70;49.20;;;;;;4985370;28;20409;-88
2021/09/30 15:02:50;;;;;;;2.93;1.60;;;19.10;51.00;;;;;;4985945;28;20472;-89
2021/09/30 15:05:17;;;;;;;1.37;1.10;;;15.90;49.70;;;;;;4986215;28;20432;-87
2021/09/30 15:07:43;;;;;;;2.77;1.43;;;18.10;49.70;;;;;;4968719;28;20174;-90
2021/09/30 15:10:10;;;;;;;1.53;1.43;;;16.00;48.40;;;;;;4968240;28;20410;-86
2021/09/30 15:12:36;;;;;;;2.30;1.03;;;15.80;47.80;;;;;;4963681;28;20447;-85
2021/09/30 15:15:03;;;;;;;3.07;1.50;;;17.30;49.10;;;;;;4964567;28;20445;-89
2021/09/30 15:22:37;;;;;;;3.70;1.67;;;17.00;49.20;;;;;;4960504;28;20468;-91
2021/09/30 15:25:11;;;;;;;1.33;1.17;;;16.70;48.00;;;;;;4946964;29;20429;-88
2021/09/30 15:27:43;;;;;;;1.37;1.17;;;17.20;48.60;;;;;;4963405;28;20405;-85
2021/09/30 15:30:27;;;;;;;3.30;1.73;;;18.40;50.30;;;;;;4939730;29;20461;-88
2021/09/30 15:33:01;;;;;;;2.60;1.40;;;16.90;50.40;;;;;;4959845;29;20505;-87
2021/09/30 15:35:29;;;;;;;1.33;1.30;;;18.80;52.20;;;;;;4957872;28;20414;-86
2021/09/30 15:38:00;;;;;;;2.10;1.70;;;14.90;48.90;;;;;;4939189;29;20427;-87
2021/09/30 15:40:29;;;;;;;3.90;1.53;;;18.90;52.90;;;;;;4940096;29;20425;-87
2021/09/30 15:42:58;;;;;;;3.60;1.90;;;16.60;50.50;;;;;;4940418;28;20485;-89
2021/09/30 15:45:23;;;;;;;2.47;1.30;;;16.80;49.80;;;;;;4961488;28;20900;-89
2021/09/30 15:47:50;;;;;;;1.40;1.30;;;18.80;52.10;;;;;;4962169;28;20414;-88
2021/09/30 15:50:16;;;;;;;1.67;1.37;;;16.50;49.50;;;;;;4943454;29;20321;-90
2021/09/30 15:52:42;;;;;;;1.70;1.60;;;17.60;51.20;;;;;;4960698;28;20469;-88
2021/09/30 15:55:08;;;;;;;2.00;1.10;;;15.80;50.00;;;;;;4961252;28;20611;-88
2021/09/30 15:57:35;;;;;;;3.60;1.47;;;16.40;50.80;;;;;;4961759;28;20250;-89
2021/09/30 16:00:05;;;;;;;1.07;0.90;;;16.30;50.60;;;;;;4962856;28;20453;-87
2021/09/30 16:02:57;;;;;;;6.43;2.07;;;16.40;50.70;;;;;;4942907;29;20806;-89
2021/09/30 16:05:42;;;;;;;1.90;1.40;;;18.40;54.60;;;;;;4960986;28;20421;-88
2021/09/30 16:08:08;;;;;;;2.53;1.70;;;17.90;53.30;;;;;;4947009;28;20468;-88
2021/09/30 16:10:39;;;;;;;2.00;1.43;;;16.40;51.10;;;;;;4954274;28;20410;-89
2021/09/30 16:13:06;;;;;;;3.07;1.70;;;17.80;53.40;;;;;;4967426;28;20952;-85